createdAt,value
2019-01-24T00:03:45.738Z,1004.4
2019-01-24T00:08:45.726Z,1004.7
2019-01-24T00:13:45.841Z,1004.7
2019-01-24T00:18:45.726Z,1004.8
2019-01-24T00:23:45.735Z,1004.7
2019-01-24T00:28:45.748Z,1004.8
2019-01-24T00:33:45.744Z,1004.8
2019-01-24T00:38:45.744Z,1004.8
2019-01-24T00:43:45.776Z,1004.8
2019-01-24T00:48:45.809Z,1004.8
2019-01-24T00:53:45.887Z,1005.1
2019-01-24T00:58:45.765Z,1005.1
2019-01-24T01:03:45.760Z,1005.1
2019-01-24T01:08:45.777Z,1005.2
2019-01-24T01:13:45.773Z,1005.4
2019-01-24T01:18:45.779Z,1005.4
2019-01-24T01:23:45.802Z,1005.5
2019-01-24T01:28:45.742Z,1005.5
2019-01-24T01:33:46.751Z,1005.7
2019-01-24T01:38:45.916Z,1005.6
2019-01-24T01:43:45.780Z,1005.6
2019-01-24T01:48:45.961Z,1005.7
2019-01-24T01:53:45.803Z,1005.8
2019-01-24T01:58:45.925Z,1005.7
2019-01-24T02:03:45.773Z,1005.7
2019-01-24T02:08:45.817Z,1005.9
2019-01-24T02:13:45.803Z,1005.9
2019-01-24T02:18:45.806Z,1005.9
2019-01-24T02:23:45.819Z,1006
2019-01-24T02:28:45.749Z,1006.1
2019-01-24T02:33:45.812Z,1006
2019-01-24T02:38:45.981Z,1006
2019-01-24T02:43:45.827Z,1006.1
2019-01-24T02:48:45.955Z,1006.1
2019-01-24T02:53:45.817Z,1006.2
2019-01-24T02:58:45.801Z,1006.2
2019-01-24T03:03:45.811Z,1006.3
2019-01-24T03:08:46.006Z,1006.3
2019-01-24T03:13:45.807Z,1006.4
2019-01-24T03:18:45.836Z,1006.5
2019-01-24T03:23:45.819Z,1006.6
2019-01-24T03:28:46.026Z,1006.6
2019-01-24T03:33:45.844Z,1006.7
2019-01-24T03:38:45.847Z,1006.7
2019-01-24T03:43:45.848Z,1006.8
2019-01-24T03:48:46.116Z,1006.8
2019-01-24T03:53:45.885Z,1006.8
2019-01-24T03:58:45.825Z,1006.9
2019-01-24T04:03:45.854Z,1006.9
2019-01-24T04:08:45.848Z,1006.9
2019-01-24T04:13:46.054Z,1007
2019-01-24T04:18:45.882Z,1007.1
2019-01-24T04:23:45.849Z,1007.2
2019-01-24T04:28:45.884Z,1007.2
2019-01-24T04:33:46.077Z,1007.3
2019-01-24T04:38:45.889Z,1007.3
2019-01-24T04:43:45.881Z,1007.2
2019-01-24T04:48:45.898Z,1007.4
2019-01-24T04:53:45.897Z,1007.4
2019-01-24T04:58:45.895Z,1007.6
2019-01-24T05:03:45.880Z,1007.6
2019-01-24T05:08:45.902Z,1007.6
2019-01-24T05:13:46.075Z,1007.7
2019-01-24T05:18:45.971Z,1007.8
2019-01-24T05:23:46.003Z,1007.8
2019-01-24T05:28:45.887Z,1007.9
2019-01-24T05:33:45.930Z,1008
2019-01-24T05:38:45.932Z,1008.1
2019-01-24T05:43:45.919Z,1008.2
2019-01-24T05:48:46.208Z,1008.3
2019-01-24T05:53:45.920Z,1008.4
2019-01-24T05:58:45.926Z,1008.5
2019-01-24T06:03:45.919Z,1008.5
2019-01-24T06:08:45.922Z,1008.7
2019-01-24T06:13:45.907Z,1008.7
2019-01-24T06:18:45.938Z,1008.8
2019-01-24T06:23:45.969Z,1008.8
2019-01-24T06:28:45.917Z,1008.8
2019-01-24T06:33:46.159Z,1008.9
2019-01-24T06:38:45.937Z,1008.9
2019-01-24T06:43:46.143Z,1008.8
2019-01-24T06:48:46.166Z,1008.8
2019-01-24T06:53:45.955Z,1008.9
2019-01-24T06:58:46.068Z,1008.9
2019-01-24T07:03:45.986Z,1008.9
2019-01-24T07:08:46.062Z,1009.1
2019-01-24T07:13:45.962Z,1009.2
2019-01-24T07:18:46.021Z,1009.2
2019-01-24T07:23:45.968Z,1009.3
2019-01-24T07:28:45.994Z,1009.4
2019-01-24T07:33:45.998Z,1009.4
2019-01-24T07:38:45.973Z,1009.5
2019-01-24T07:43:45.954Z,1009.7
2019-01-24T07:48:45.980Z,1009.7
2019-01-24T07:53:45.977Z,1009.7
2019-01-24T07:58:46.324Z,1009.7
2019-01-24T08:03:45.941Z,1009.7
2019-01-24T08:08:46.021Z,1009.7
2019-01-24T08:13:46.003Z,1009.8
2019-01-24T08:18:45.987Z,1009.8
2019-01-24T08:23:46.025Z,1009.8
2019-01-24T08:28:46.256Z,1009.8
2019-01-24T08:33:46.014Z,1009.9
2019-01-24T08:38:46.004Z,1009.9
2019-01-24T08:43:46.012Z,1009.9
2019-01-24T08:48:46.009Z,1009.8
2019-01-24T08:53:46.020Z,1009.8
2019-01-24T08:58:46.029Z,1009.9
2019-01-24T09:03:46.026Z,1010
2019-01-24T09:08:46.015Z,1010.1
2019-01-24T09:13:46.018Z,1010.1
2019-01-24T09:18:46.008Z,1010.1
2019-01-24T09:23:46.037Z,1010
2019-01-24T09:28:46.247Z,1010.1
2019-01-24T09:33:46.056Z,1010.1
2019-01-24T09:38:46.053Z,1010.1
2019-01-24T09:43:46.034Z,1010.2
2019-01-24T09:48:46.269Z,1010.1
2019-01-24T09:53:46.059Z,1010.1
2019-01-24T09:58:46.036Z,1010.2
2019-01-24T10:03:46.058Z,1010.1
2019-01-24T10:08:46.049Z,1010.1
2019-01-24T10:13:46.064Z,1010.1
2019-01-24T10:18:46.079Z,1010.1
2019-01-24T10:23:46.073Z,1010
2019-01-24T10:28:46.226Z,1009.9
2019-01-24T10:33:46.058Z,1010
2019-01-24T10:38:46.091Z,1010
2019-01-24T10:43:46.096Z,1010
2019-01-24T10:48:46.078Z,1009.9
2019-01-24T10:53:46.072Z,1009.9
2019-01-24T10:58:46.081Z,1009.8
2019-01-24T11:03:46.087Z,1009.8
2019-01-24T11:08:46.104Z,1009.7
2019-01-24T11:13:46.066Z,1009.7
2019-01-24T11:18:46.086Z,1009.8
2019-01-24T11:23:46.366Z,1009.7
2019-01-24T11:28:46.095Z,1009.8
2019-01-24T11:33:46.279Z,1009.8
2019-01-24T11:38:46.049Z,1009.9
2019-01-24T11:43:46.353Z,1009.9
2019-01-24T11:48:46.271Z,1009.9
2019-01-24T11:53:52.895Z,1009.8
2019-01-24T11:58:46.131Z,1009.8
2019-01-24T12:03:46.207Z,1009.7
2019-01-24T12:08:46.109Z,1009.7
2019-01-24T12:13:46.157Z,1009.7
2019-01-24T12:18:46.270Z,1009.8
2019-01-24T12:23:46.152Z,1009.8
2019-01-24T12:28:46.361Z,1009.9
2019-01-24T12:33:46.115Z,1009.8
2019-01-24T12:38:46.248Z,1009.9
2019-01-24T12:43:46.365Z,1009.9
2019-01-24T12:48:47.562Z,1009.8
2019-01-24T12:53:46.311Z,1009.8
2019-01-24T12:58:46.366Z,1009.7
2019-01-24T13:03:46.149Z,1009.9
2019-01-24T13:08:46.218Z,1009.9
2019-01-24T13:13:46.386Z,1009.8
2019-01-24T13:18:46.179Z,1009.9
2019-01-24T13:23:46.320Z,1010
2019-01-24T13:28:46.363Z,1010.1
2019-01-24T13:33:46.704Z,1010.1
2019-01-24T13:38:46.166Z,1010.1
2019-01-24T13:43:46.177Z,1010.2
2019-01-24T13:48:46.174Z,1010.2
2019-01-24T13:53:46.190Z,1010.2
2019-01-24T13:58:46.164Z,1010.3
2019-01-24T14:03:46.692Z,1010.5
2019-01-24T14:08:46.307Z,1010.5
2019-01-24T14:13:46.174Z,1010.5
2019-01-24T14:18:46.183Z,1010.6
2019-01-24T14:23:46.218Z,1010.6
2019-01-24T14:28:46.311Z,1010.7
2019-01-24T14:33:46.218Z,1010.7
2019-01-24T14:38:46.221Z,1010.8
2019-01-24T14:43:46.347Z,1010.8
2019-01-24T14:48:46.214Z,1010.8
2019-01-24T14:53:46.209Z,1010.8
2019-01-24T14:58:46.199Z,1010.8
2019-01-24T15:03:46.381Z,1010.9
2019-01-24T15:08:46.222Z,1010.9
2019-01-24T15:13:46.307Z,1011
2019-01-24T15:18:46.302Z,1011.1
2019-01-24T15:23:46.244Z,1011.1
2019-01-24T15:28:46.224Z,1011.1
2019-01-24T15:33:46.242Z,1011.1
2019-01-24T15:38:46.225Z,1011.2
2019-01-24T15:43:46.473Z,1011.2
2019-01-24T15:48:46.236Z,1011.2
2019-01-24T15:53:46.253Z,1011.2
2019-01-24T15:58:46.213Z,1011.4
2019-01-24T16:03:46.275Z,1011.5
2019-01-24T16:08:46.216Z,1011.5
2019-01-24T16:13:46.234Z,1011.6
2019-01-24T16:18:46.260Z,1011.6
2019-01-24T16:23:46.234Z,1011.6
2019-01-24T16:28:46.281Z,1011.7
2019-01-24T16:33:49.164Z,1011.7
2019-01-24T16:38:46.301Z,1011.7
2019-01-24T16:43:46.247Z,1011.8
2019-01-24T16:48:47.369Z,1011.8
2019-01-24T16:53:46.276Z,1011.8
2019-01-24T16:58:46.265Z,1011.9
2019-01-24T17:03:46.229Z,1012
2019-01-24T17:08:46.298Z,1012.1
2019-01-24T17:13:46.358Z,1012
2019-01-24T17:18:46.285Z,1012.2
2019-01-24T17:23:46.314Z,1012.2
2019-01-24T17:28:46.310Z,1012.2
2019-01-24T17:33:46.277Z,1012.4
2019-01-24T17:38:46.287Z,1012.5
2019-01-24T17:43:46.304Z,1012.6
2019-01-24T17:48:46.338Z,1012.6
2019-01-24T17:53:46.439Z,1012.7
2019-01-24T17:58:46.576Z,1012.8
2019-01-24T18:03:47.196Z,1012.8
2019-01-24T18:08:46.354Z,1012.9
2019-01-24T18:13:46.312Z,1012.9
2019-01-24T18:18:46.348Z,1012.9
2019-01-24T18:23:46.406Z,1013
2019-01-24T18:28:46.579Z,1013.1
2019-01-24T18:33:46.426Z,1013.1
2019-01-24T18:38:46.419Z,1013.1
2019-01-24T18:43:46.566Z,1013.2
2019-01-24T18:48:46.333Z,1013.1
2019-01-24T18:53:46.372Z,1013.1
2019-01-24T18:58:46.602Z,1013.1
2019-01-24T19:03:46.354Z,1013.2
2019-01-24T19:08:46.498Z,1013.3
2019-01-24T19:13:46.343Z,1013.3
2019-01-24T19:18:46.355Z,1013.4
2019-01-24T19:23:49.063Z,1013.4
2019-01-24T19:28:46.338Z,1013.4
2019-01-24T19:33:46.321Z,1013.3
2019-01-24T19:38:53.551Z,1013.3
2019-01-24T19:43:46.345Z,1013.3
2019-01-24T19:48:46.331Z,1013.3
2019-01-24T19:53:46.866Z,1013.3
2019-01-24T19:58:46.594Z,1013.5
2019-01-24T20:03:46.369Z,1013.5
2019-01-24T20:08:46.366Z,1013.5
2019-01-24T20:13:46.399Z,1013.7
2019-01-24T20:18:46.797Z,1013.7
2019-01-24T20:23:46.389Z,1013.8
2019-01-24T20:28:47.560Z,1013.9
2019-01-24T20:33:47.218Z,1013.9
2019-01-24T20:38:46.427Z,1013.8
2019-01-24T20:43:46.389Z,1013.9
2019-01-24T20:48:46.561Z,1013.9
2019-01-24T20:53:46.449Z,1013.9
2019-01-24T20:58:47.448Z,1013.9
2019-01-24T21:03:46.894Z,1013.8
2019-01-24T21:08:46.444Z,1014
2019-01-24T21:13:46.466Z,1014
2019-01-24T21:18:46.432Z,1014.1
2019-01-24T21:23:46.453Z,1014
2019-01-24T21:28:46.409Z,1014
2019-01-24T21:33:46.387Z,1013.9
2019-01-24T21:38:46.428Z,1014
2019-01-24T21:43:46.439Z,1014.1
2019-01-24T21:48:46.560Z,1014.1
2019-01-24T21:53:46.464Z,1014.1
2019-01-24T21:58:46.422Z,1014.1
2019-01-24T22:03:46.628Z,1014.1
2019-01-24T22:08:46.656Z,1014.1
2019-01-24T22:13:46.448Z,1014.2
2019-01-24T22:18:46.387Z,1014.2
2019-01-24T22:23:46.410Z,1014.2
2019-01-24T22:28:46.475Z,1014.2
2019-01-24T22:33:46.459Z,1014.2
2019-01-24T22:38:46.473Z,1014.2
2019-01-24T22:43:46.441Z,1014.1
2019-01-24T22:48:46.458Z,1014.2
2019-01-24T22:53:46.531Z,1014.2
2019-01-24T22:58:46.686Z,1014.3
2019-01-24T23:03:46.486Z,1014.4
2019-01-24T23:08:46.853Z,1014.4
2019-01-24T23:13:46.582Z,1014.4
2019-01-24T23:18:46.422Z,1014.5
2019-01-24T23:23:46.487Z,1014.5
2019-01-24T23:28:46.474Z,1014.5
2019-01-24T23:33:46.464Z,1014.6
2019-01-24T23:38:46.627Z,1014.6
2019-01-24T23:43:46.492Z,1014.6
2019-01-24T23:48:46.483Z,1014.6
2019-01-24T23:53:46.630Z,1014.6
2019-01-24T23:58:46.472Z,1014.6
